Vliegveldwaarnemingen Nederland - (AUTO) METAR

Luchtvaartmeteorologische informatie voor operationeel gebruik en vluchtvoorbereiding is beschikbaar op www.luchtvaartmeteo.nl.

ZCZC
SA100325 EHFS     VLISSINGEN AWS   NLD   8 m.
METAR EHFS 100325Z AUTO 31012KT 280V340 9999 FEW022/// 08/03 Q1020
W///H///=

ZCZC
SA100355 EHKD     DE KOOY/DE KOOY   NLD   1 m.
METAR EHKD 100355Z AUTO 31019KT 270V340 9999 FEW034 SCT040 BKN048
07/01 Q1017 BLU=

ZCZC
SA100355 EHFD     F3-FB-1   NLD   50 m.
METAR EHFD 100355Z AUTO 32036KT 9999 FEW017/// SCT029/// 06/02 Q1011
W///H///=

ZCZC
SA100355 EHAM     AMSTERDAM/SCHIPHOL   NLD   -3 m.
METAR EHAM 100355Z 31009KT 270V330 9999 VCSH FEW018CB SCT024 05/02
Q1018 TEMPO 32020G30KT 6000 SHRA=

ZCZC
SA100355 EHVL     VLIELAND   NLD   10 m.
METAR EHVL 100355Z AUTO 31024G37KT 9999 FEW029 SCT036 BKN041 07/03
Q1016 BLU=

ZCZC
SA100355 EHJR     K13-A   NLD   37 m.
METAR EHJR 100355Z AUTO 32025KT //// // ///////// 08/02 Q1018 RE//
W///H39=

ZCZC
SA100355 EHLW     LEEUWARDEN/LEEUWARDEN   NLD   1 m.
METAR EHLW 100355Z AUTO 30017KT 260V330 9999 FEW036 SCT061 BKN074
05/02 Q1015 BLU=

ZCZC
SA100355 EHDL     ARNHEM/DEELEN   NLD   48 m.
METAR EHDL 100355Z AUTO 28007KT 240V330 9999 FEW015CB SCT032 04/02
Q1017 RERA BLU=

ZCZC
SA100355 EHGG     GRONINGEN/EELDE   NLD   5 m.
METAR EHGG 100355Z AUTO 29010KT 250V320 9999 FEW041 SCT048 04/00
Q1014=

ZCZC
SA100355 EHSC     LICHTEILAND GOEREE   NLD   22 m.
METAR EHSC 100355Z AUTO 31025KT 9999 ///////// 08/04 Q1020 W09/H26=

ZCZC
SA100355 EHSA     EURO PLATFORM   NLD   19 m.
METAR EHSA 100355Z AUTO 29022KT 9999 ///////// 08/03 Q1020 W08/H25=

ZCZC
SA100355 EHWO     WOENSDRECHT/WOENSDRECHT   NLD   19 m.
METAR EHWO 100355Z AUTO 26009KT 240V320 9999 FEW022 05/03 Q1020 BLU=

ZCZC
SA100355 EHRD     ROTTERDAM/THE HAGUE AIRPORT   NLD   -5 m.
METAR EHRD 100355Z AUTO 33006KT 290V020 9999 -RA FEW003 FEW015CB
SCT025 BKN028 06/04 Q1019 RERA TEMPO 32020G30KT 6000 SHRA=

ZCZC
SA100355 EHGR     GILZE-RIJEN/GILZE-RIJEN   NLD   14 m.
METAR EHGR 100355Z AUTO 27007KT 9999 FEW015CB BKN058 05/03 Q1019 BLU=

ZCZC
SA100355 EHEH     EINDHOVEN/EINDHOVEN   NLD   22 m.
METAR EHEH 100355Z AUTO 25008KT 220V290 9999 SCT030 SCT046 BKN060
04/03 Q1019 BLU=

ZCZC
SA100355 EHVK     VOLKEL/VOLKEL   NLD   21 m.
METAR EHVK 100355Z AUTO 27006KT 9999 -UP FEW026 SCT032 BKN040 05/03
Q1018 BLU=

ZCZC
SA100355 EHBK     MAASTRICHT/MAASTRICHT-AACHEN   NLD   114 m.
METAR EHBK 100355Z AUTO VRB08G19KT 9999 DZ FEW008 FEW015CB SCT018
BKN028 05/03 Q1019=

ZCZC
SA100355 EHFZ     F16-A   NLD   43 m.
METAR EHFZ 100355Z AUTO 30036KT 9999 FEW021 SCT033 07/02 Q1015
W///H///=

ZCZC
SA100355 EHKV     K14-FA-1C   NLD   41 m.
METAR EHKV 100355Z AUTO 31023KT 270V340 9999 FEW020CB SCT031 BKN037
08/03 Q1018 REDZ W///H///=

ZCZC
SA100355 EHMG     L9-FF-1   NLD   44 m.
METAR EHMG 100355Z AUTO 32033KT 9999 FEW004 FEW017CB 07/02 Q1015
REUPDZ W///H///=

ZCZC
SA100355 EHMA     AWG-1   NLD   40 m.
METAR EHMA 100355Z AUTO 31033KT //// // FEW036 07/00 Q1013 RE//
W///H///=

ZCZC
SA100355 EHDV     D15-FA-1   NLD   42 m.
METAR EHDV 100355Z AUTO 33030G43KT 9999 FEW013/// SCT039/// 06/02
Q1017 W///H///=

ZCZC
SA100355 EHAK     A12-CPP   NLD   48 m.
METAR EHAK 100355Z AUTO 35037KT 9999 FEW009/// SCT038/// 07/M01 Q1012
W///H///=

ZCZC
SA100355 EHQE     HOORN-A   NLD   50 m.
METAR EHQE 100355Z AUTO 32028KT 9999 FEW019 SCT029 08/04 Q1017
W///H///=

ZCZC
SA100355 EHJA     J6-A   NLD   45 m.
METAR EHJA 100355Z AUTO 32030KT 9999 FEW023/// SCT032/// BKN038///
07/03 Q1017 W///H///=

ZCZC
SA100355 EHPG     P11-B   NLD   41 m.
METAR EHPG 100355Z AUTO 28017KT 230V320 9999 FEW021 SCT025 BKN037
09/03 Q1019 W///H///=

ZCZC
SA100355 EHHW     BUITENGAATS/BG-OHVS2      42 m.
METAR EHHW 100355Z AUTO 34031KT //// // FEW026/// SCT035/// 07/00
Q1012 RE// W///H///=

10/12/2018 05.00 uur LT